createdAt,value
2019-06-26T00:00:16.340Z,19.77
2019-06-26T00:02:45.646Z,21.53
2019-06-26T00:05:15.055Z,20.65
2019-06-26T00:07:44.346Z,20.68
2019-06-26T00:10:14.359Z,20.77
2019-06-26T00:12:43.741Z,20.43
2019-06-26T00:15:13.496Z,21.75
2019-06-26T00:17:42.872Z,22.85
2019-06-26T00:20:12.983Z,22.07
2019-06-26T00:22:42.290Z,23.40
2019-06-26T00:25:11.628Z,22.58
2019-06-26T00:27:40.910Z,22.40
2019-06-26T00:30:10.429Z,23.40
2019-06-26T00:32:39.724Z,23.52
2019-06-26T00:35:09.173Z,25.15
2019-06-26T00:37:38.463Z,28.30
2019-06-26T00:40:08.298Z,26.12
2019-06-26T00:42:37.582Z,28.10
2019-06-26T00:45:07.542Z,32.40
2019-06-26T00:47:36.820Z,28.25
2019-06-26T00:50:07.357Z,30.65
2019-06-26T00:52:36.687Z,33.78
2019-06-26T00:55:06.745Z,30.72
2019-06-26T00:57:36.044Z,31.27
2019-06-26T01:00:09.262Z,30.90
2019-06-26T01:02:38.821Z,29.82
2019-06-26T01:05:10.368Z,32.80
2019-06-26T01:07:39.792Z,34.78
2019-06-26T01:10:10.129Z,34.33
2019-06-26T01:12:39.526Z,38.08
2019-06-26T01:15:09.989Z,41.70
2019-06-26T01:17:39.468Z,41.00
2019-06-26T01:20:09.226Z,39.78
2019-06-26T01:22:38.559Z,39.38
2019-06-26T01:25:08.235Z,37.75
2019-06-26T01:27:37.544Z,41.53
2019-06-26T01:30:07.548Z,42.58
2019-06-26T01:32:36.861Z,45.60
2019-06-26T01:35:06.343Z,43.68
2019-06-26T01:37:35.664Z,46.35
2019-06-26T01:40:05.305Z,44.83
2019-06-26T01:42:34.624Z,43.50
2019-06-26T01:45:03.910Z,43.78
2019-06-26T01:47:33.226Z,42.62
2019-06-26T01:50:02.500Z,44.83
2019-06-26T01:52:31.809Z,45.03
2019-06-26T01:55:01.099Z,49.53
2019-06-26T01:57:30.425Z,51.80
2019-06-26T01:59:59.713Z,52.90
2019-06-26T02:02:29.074Z,57.05
2019-06-26T02:04:58.391Z,55.67
2019-06-26T02:07:27.707Z,54.27
2019-06-26T02:09:57.134Z,57.33
2019-06-26T02:12:26.474Z,55.92
2019-06-26T02:14:55.795Z,59.08
2019-06-26T02:17:25.159Z,62.83
2019-06-26T02:19:54.444Z,66.00
2019-06-26T02:22:23.780Z,66.95
2019-06-26T02:24:53.078Z,68.55
2019-06-26T02:27:22.472Z,73.97
2019-06-26T02:29:51.804Z,72.32
2019-06-26T02:32:21.129Z,74.15
2019-06-26T02:34:50.764Z,76.82
2019-06-26T02:37:20.180Z,75.42
2019-06-26T02:39:49.511Z,82.60
2019-06-26T02:42:18.919Z,85.40
2019-06-26T02:44:53.790Z,87.62
2019-06-26T02:47:20.954Z,84.58
2019-06-26T02:49:50.445Z,90.32
2019-06-26T02:52:19.813Z,89.55
2019-06-26T02:54:49.103Z,85.90
2019-06-26T02:57:18.442Z,92.37
2019-06-26T02:59:47.746Z,88.03
2019-06-26T03:02:17.045Z,93.90
2019-06-26T03:04:46.368Z,87.60
2019-06-26T03:07:15.686Z,89.85
2019-06-26T03:09:45.062Z,92.30
2019-06-26T03:12:14.378Z,88.30
2019-06-26T03:14:43.786Z,83.62
2019-06-26T03:17:13.173Z,87.45
2019-06-26T03:19:42.584Z,81.22
2019-06-26T03:22:11.937Z,86.02
2019-06-26T03:24:41.210Z,85.87
2019-06-26T03:27:10.500Z,82.67
2019-06-26T03:29:39.860Z,85.92
2019-06-26T03:32:09.160Z,83.82
2019-06-26T03:34:38.493Z,83.35
2019-06-26T03:37:07.818Z,79.12
2019-06-26T03:39:37.143Z,88.03
2019-06-26T03:42:06.467Z,79.77
2019-06-26T03:44:35.813Z,83.82
2019-06-26T03:47:05.121Z,80.65
2019-06-26T03:49:34.441Z,82.37
2019-06-26T03:52:03.788Z,81.15
2019-06-26T03:54:33.228Z,82.25
2019-06-26T03:57:02.511Z,82.12
2019-06-26T03:59:31.816Z,82.78
2019-06-26T04:02:01.182Z,80.03
2019-06-26T04:04:30.488Z,80.72
2019-06-26T04:06:59.831Z,80.15
2019-06-26T04:09:29.129Z,80.07
2019-06-26T04:11:58.454Z,77.87
2019-06-26T04:14:27.770Z,80.77
2019-06-26T04:16:57.144Z,82.62
2019-06-26T04:19:26.450Z,79.37
2019-06-26T04:21:55.757Z,82.70
2019-06-26T04:24:25.062Z,76.40
2019-06-26T04:26:54.433Z,81.87
2019-06-26T04:29:23.809Z,80.55
2019-06-26T04:31:53.168Z,83.42
2019-06-26T04:34:22.652Z,78.10
2019-06-26T04:36:52.080Z,83.70
2019-06-26T04:39:21.662Z,76.28
2019-06-26T04:41:51.104Z,79.47
2019-06-26T04:44:20.421Z,75.42
2019-06-26T04:46:50.831Z,74.87
2019-06-26T04:49:20.192Z,68.50
2019-06-26T04:51:49.519Z,71.97
2019-06-26T04:54:18.885Z,79.35
2019-06-26T04:56:48.259Z,75.70
2019-06-26T04:59:19.715Z,75.65
2019-06-26T05:01:49.004Z,75.57
2019-06-26T05:04:18.356Z,74.12
2019-06-26T05:06:47.672Z,71.37
2019-06-26T05:09:17.126Z,78.62
2019-06-26T05:11:46.564Z,82.65
2019-06-26T05:14:15.877Z,80.80
2019-06-26T05:16:45.193Z,85.97
2019-06-26T05:19:14.741Z,90.15
2019-06-26T05:21:44.151Z,88.07
2019-06-26T05:24:13.397Z,89.75
2019-06-26T05:26:42.727Z,86.87
2019-06-26T05:29:12.098Z,91.65
2019-06-26T05:31:41.410Z,84.87
2019-06-26T05:34:11.277Z,85.57
2019-06-26T05:36:40.631Z,95.55
2019-06-26T05:39:10.113Z,92.65
2019-06-26T05:41:39.420Z,93.50
2019-06-26T05:44:08.738Z,96.65
2019-06-26T05:46:38.056Z,93.80
2019-06-26T05:49:07.389Z,93.92
2019-06-26T05:51:36.867Z,88.45
2019-06-26T05:54:06.269Z,98.55
2019-06-26T05:56:35.572Z,98.27
2019-06-26T05:59:04.910Z,96.32
2019-06-26T06:01:34.351Z,110.85
2019-06-26T06:04:03.678Z,112.00
2019-06-26T06:06:41.803Z,110.92
2019-06-26T06:09:05.667Z,109.37
2019-06-26T06:11:34.982Z,108.63
2019-06-26T06:14:04.361Z,101.78
2019-06-26T06:16:46.894Z,111.42
2019-06-26T06:19:04.721Z,116.42
2019-06-26T06:21:34.023Z,114.37
2019-06-26T06:24:03.373Z,108.35
2019-06-26T06:26:32.667Z,115.57
2019-06-26T06:29:02.148Z,111.28
2019-06-26T06:31:31.504Z,101.22
2019-06-26T06:34:00.828Z,106.07
2019-06-26T06:36:30.159Z,114.67
2019-06-26T06:38:59.460Z,111.55
2019-06-26T06:41:28.745Z,102.45
2019-06-26T06:43:58.062Z,106.27
2019-06-26T06:46:27.342Z,110.08
2019-06-26T06:48:56.647Z,108.40
2019-06-26T06:51:25.973Z,106.47
2019-06-26T06:53:55.375Z,104.70
2019-06-26T06:56:24.689Z,112.28
2019-06-26T06:58:53.985Z,109.25
2019-06-26T07:01:23.283Z,96.20
2019-06-26T07:03:52.603Z,106.17
2019-06-26T07:06:21.939Z,101.75
2019-06-26T07:08:51.242Z,101.22
2019-06-26T07:11:20.603Z,105.80
2019-06-26T07:13:49.883Z,99.90
2019-06-26T07:16:19.237Z,107.63
2019-06-26T07:18:48.514Z,96.32
2019-06-26T07:21:17.862Z,97.90
2019-06-26T07:23:47.160Z,107.58
2019-06-26T07:26:16.647Z,100.78
2019-06-26T07:28:45.940Z,92.53
2019-06-26T07:31:15.274Z,94.00
2019-06-26T07:33:44.624Z,84.72
2019-06-26T07:36:13.960Z,99.50
2019-06-26T07:38:43.230Z,90.10
2019-06-26T07:41:12.654Z,104.83
2019-06-26T07:43:41.955Z,106.07
2019-06-26T07:46:11.315Z,83.92
2019-06-26T07:48:40.603Z,93.12
2019-06-26T08:25:56.909Z,95.50
2019-06-26T08:28:26.216Z,77.87
2019-06-26T08:30:55.463Z,95.97
2019-06-26T08:33:24.751Z,101.82
2019-06-26T08:35:54.176Z,99.83
2019-06-26T08:38:23.456Z,84.20
2019-06-26T08:40:52.697Z,94.32
2019-06-26T08:43:21.949Z,100.15
2019-06-26T08:45:51.207Z,92.05
2019-06-26T08:48:38.331Z,84.85
2019-06-26T08:50:51.501Z,90.12
2019-06-26T08:53:20.761Z,111.70
2019-06-26T08:55:49.992Z,106.58
2019-06-26T08:58:19.268Z,103.95
2019-06-26T09:00:48.514Z,113.37
2019-06-26T09:03:17.887Z,104.45
2019-06-26T09:05:48.623Z,100.62
2019-06-26T09:08:18.192Z,133.37
2019-06-26T09:10:47.518Z,107.85
2019-06-26T09:13:16.811Z,108.97
2019-06-26T09:15:49.557Z,98.78
2019-06-26T09:18:34.057Z,100.38
2019-06-26T09:20:48.042Z,100.87
2019-06-26T09:23:17.303Z,98.67
2019-06-26T09:25:46.708Z,104.40
2019-06-26T09:28:15.980Z,120.37
2019-06-26T09:30:45.272Z,128.15
2019-06-26T09:33:14.563Z,104.25
2019-06-26T09:35:43.861Z,103.65
2019-06-26T09:38:13.731Z,104.35
2019-06-26T09:40:43.009Z,100.10
2019-06-26T09:43:12.326Z,103.78
2019-06-26T09:45:41.611Z,95.38
2019-06-26T09:48:11.393Z,99.03
2019-06-26T09:50:40.738Z,94.70
2019-06-26T09:53:10.037Z,94.05
2019-06-26T09:55:39.435Z,96.67
2019-06-26T09:58:08.899Z,98.12
2019-06-26T10:00:38.559Z,91.78
2019-06-26T10:03:07.873Z,88.05
2019-06-26T10:05:37.375Z,97.15
2019-06-26T10:08:06.608Z,92.47
2019-06-26T10:10:35.979Z,103.58
2019-06-26T10:13:05.268Z,97.72
2019-06-26T10:15:34.601Z,100.97
2019-06-26T10:18:03.990Z,87.88
2019-06-26T10:20:34.139Z,89.00
2019-06-26T10:23:03.403Z,89.20
2019-06-26T10:25:32.667Z,89.45
2019-06-26T10:28:02.575Z,85.72
2019-06-26T10:30:31.842Z,85.97
2019-06-26T10:33:01.131Z,84.15
2019-06-26T10:35:30.697Z,86.53
2019-06-26T10:38:00.070Z,94.22
2019-06-26T10:40:29.385Z,88.17
2019-06-26T10:42:59.303Z,85.92
2019-06-26T10:45:28.537Z,93.80
2019-06-26T10:47:57.810Z,89.05
2019-06-26T10:50:27.134Z,82.47
2019-06-26T10:52:56.433Z,87.88
2019-06-26T10:55:25.784Z,93.95
2019-06-26T10:57:55.111Z,80.60
2019-06-26T11:00:26.142Z,81.80
2019-06-26T11:02:55.466Z,79.05
2019-06-26T11:05:24.925Z,89.85
2019-06-26T11:07:54.343Z,80.12
2019-06-26T11:10:23.578Z,80.50
2019-06-26T11:12:52.849Z,75.03
2019-06-26T11:15:25.355Z,78.65
2019-06-26T11:17:54.812Z,78.83
2019-06-26T11:20:24.211Z,80.62
2019-06-26T11:22:53.619Z,78.92
2019-06-26T11:25:22.940Z,75.45
2019-06-26T11:27:52.226Z,72.40
2019-06-26T11:30:22.105Z,75.10
2019-06-26T11:32:51.377Z,69.07
2019-06-26T11:35:20.666Z,75.95
2019-06-26T11:37:50.169Z,78.52
2019-06-26T11:40:19.757Z,77.70
2019-06-26T11:42:49.030Z,76.80
2019-06-26T11:45:18.638Z,73.72
2019-06-26T11:47:47.910Z,82.92
2019-06-26T11:50:18.332Z,75.30
2019-06-26T11:52:47.573Z,74.77
2019-06-26T11:55:17.549Z,71.00
2019-06-26T11:57:46.954Z,66.57
2019-06-26T12:00:17.082Z,76.47
2019-06-26T12:02:49.421Z,71.67
2019-06-26T12:05:19.084Z,76.47
2019-06-26T12:07:48.333Z,80.65
2019-06-26T12:10:18.207Z,78.22
2019-06-26T12:12:47.514Z,79.27
2019-06-26T12:15:17.477Z,72.65
2019-06-26T12:17:46.769Z,67.95
2019-06-26T12:20:19.162Z,67.05
2019-06-26T12:22:47.422Z,60.00
2019-06-26T12:25:17.645Z,61.68
2019-06-26T12:27:46.940Z,61.77
2019-06-26T12:30:16.339Z,56.35
2019-06-26T12:33:01.588Z,66.92
2019-06-26T12:35:16.812Z,61.65
2019-06-26T12:37:46.581Z,58.17
2019-06-26T12:40:16.240Z,59.25
2019-06-26T12:42:45.502Z,54.48
2019-06-26T12:45:14.997Z,47.67
2019-06-26T12:47:44.261Z,46.95
2019-06-26T12:50:14.259Z,46.83
2019-06-26T12:52:43.536Z,44.40
2019-06-26T12:55:12.798Z,50.63
2019-06-26T12:57:42.040Z,46.77
2019-06-26T13:00:11.863Z,42.13
2019-06-26T13:02:41.251Z,42.35
2019-06-26T13:05:10.650Z,42.95
2019-06-26T13:07:39.900Z,39.55
2019-06-26T13:10:11.083Z,46.45
2019-06-26T13:12:40.327Z,38.37
2019-06-26T13:15:10.295Z,39.03
2019-06-26T13:17:39.545Z,40.92
2019-06-26T13:20:10.348Z,37.45
2019-06-26T13:22:39.909Z,36.80
2019-06-26T13:25:09.260Z,41.45
2019-06-26T13:27:38.528Z,40.98
2019-06-26T13:30:08.515Z,36.40
2019-06-26T13:32:37.741Z,40.83
2019-06-26T13:35:08.030Z,35.48
2019-06-26T13:37:40.417Z,36.73
2019-06-26T13:40:09.863Z,34.60
2019-06-26T13:42:39.141Z,34.30
2019-06-26T13:45:08.676Z,30.68
2019-06-26T13:47:37.951Z,30.25
2019-06-26T13:50:07.689Z,29.18
2019-06-26T13:52:37.060Z,30.48
2019-06-26T13:55:06.390Z,26.80
2019-06-26T13:57:38.560Z,24.10
2019-06-26T14:00:08.217Z,27.37
2019-06-26T14:02:37.585Z,24.25
2019-06-26T14:05:07.305Z,23.15
2019-06-26T14:07:36.612Z,23.42
2019-06-26T14:10:06.636Z,19.35
2019-06-26T14:12:36.231Z,19.65
2019-06-26T14:15:05.670Z,17.27
2019-06-26T14:17:34.939Z,18.75
2019-06-26T14:20:04.591Z,20.32
2019-06-26T14:22:33.873Z,19.20
2019-06-26T14:25:03.139Z,19.32
2019-06-26T14:27:33.156Z,17.27
2019-06-26T14:30:02.385Z,16.40
2019-06-26T14:32:31.682Z,17.07
2019-06-26T14:35:00.942Z,16.90
2019-06-26T14:37:30.217Z,17.80
2019-06-26T14:39:59.466Z,17.17
2019-06-26T14:42:28.800Z,17.98
2019-06-26T14:44:58.038Z,16.60
2019-06-26T14:47:27.312Z,15.68
2019-06-26T14:49:56.595Z,15.28
2019-06-26T14:52:26.041Z,13.35
2019-06-26T14:54:55.351Z,13.50
2019-06-26T14:57:27.745Z,16.48
2019-06-26T14:59:57.028Z,14.47
2019-06-26T15:02:26.356Z,17.02
2019-06-26T15:04:55.623Z,14.63
2019-06-26T15:07:25.003Z,15.30
2019-06-26T15:09:54.369Z,15.95
2019-06-26T15:12:23.627Z,16.30
2019-06-26T15:14:52.894Z,17.67
2019-06-26T15:17:22.146Z,14.83
2019-06-26T15:19:51.450Z,13.22
2019-06-26T15:22:20.702Z,15.30
2019-06-26T15:24:50.039Z,15.60
2019-06-26T15:27:19.326Z,16.17
2019-06-26T15:29:48.633Z,16.20
2019-06-26T15:32:17.930Z,15.03
2019-06-26T15:34:47.326Z,15.75
2019-06-26T15:37:16.632Z,14.65
2019-06-26T15:39:46.060Z,14.58
2019-06-26T15:42:15.359Z,15.90
2019-06-26T15:44:44.699Z,14.03
2019-06-26T15:47:13.955Z,15.18
2019-06-26T15:49:43.251Z,13.85
2019-06-26T15:52:15.288Z,13.53
2019-06-26T15:54:43.582Z,12.85
2019-06-26T15:57:13.072Z,14.53
2019-06-26T15:59:42.367Z,15.10
2019-06-26T16:02:11.648Z,14.75
2019-06-26T16:04:40.933Z,12.95
2019-06-26T16:07:10.179Z,13.58
2019-06-26T16:09:39.466Z,15.25
2019-06-26T16:12:08.691Z,15.60
2019-06-26T16:14:37.955Z,15.08
2019-06-26T16:17:13.570Z,15.95
2019-06-26T16:19:42.848Z,15.25
2019-06-26T16:22:12.107Z,13.90
2019-06-26T16:24:41.398Z,15.15
2019-06-26T16:27:10.656Z,14.95
2019-06-26T16:29:39.936Z,14.60
2019-06-26T16:32:09.187Z,15.55
2019-06-26T16:34:38.446Z,17.55
2019-06-26T16:37:07.748Z,20.23
2019-06-26T16:39:37.017Z,16.42
2019-06-26T16:42:06.289Z,15.48
2019-06-26T16:44:35.567Z,16.12
2019-06-26T16:47:04.844Z,15.95
2019-06-26T16:49:34.088Z,15.03
2019-06-26T16:52:05.159Z,14.50
2019-06-26T16:54:34.519Z,14.83
2019-06-26T16:57:03.810Z,14.87
2019-06-26T16:59:33.108Z,14.05
2019-06-26T17:02:02.430Z,14.95
2019-06-26T17:04:31.801Z,12.98
2019-06-26T17:07:01.173Z,12.70
2019-06-26T17:09:30.512Z,12.60
2019-06-26T17:11:59.794Z,12.47
2019-06-26T17:14:29.043Z,13.30
2019-06-26T17:16:58.410Z,13.93
2019-06-26T17:19:27.780Z,15.23
2019-06-26T17:21:57.286Z,11.85
2019-06-26T17:24:26.682Z,12.85
2019-06-26T17:26:59.822Z,13.00
2019-06-26T17:29:29.235Z,13.03
2019-06-26T17:31:58.545Z,15.70
2019-06-26T17:34:27.875Z,12.23
2019-06-26T17:36:57.157Z,13.28
2019-06-26T17:39:26.428Z,13.98
2019-06-26T17:41:55.719Z,12.35
2019-06-26T17:44:24.992Z,11.10
2019-06-26T17:46:56.115Z,12.07
2019-06-26T17:49:25.420Z,13.38
2019-06-26T17:51:54.648Z,10.90
2019-06-26T17:54:23.896Z,11.55
2019-06-26T17:56:54.247Z,13.40
2019-06-26T17:59:23.515Z,10.23
2019-06-26T18:01:53.014Z,13.50
2019-06-26T18:04:22.309Z,10.48
2019-06-26T18:06:51.696Z,12.40
2019-06-26T18:09:21.087Z,11.03
2019-06-26T18:11:50.445Z,10.73
2019-06-26T18:14:19.750Z,9.98
2019-06-26T18:16:49.096Z,10.63
2019-06-26T18:19:18.453Z,8.50
2019-06-26T18:21:47.745Z,8.93
2019-06-26T18:24:17.027Z,12.05
2019-06-26T18:26:46.317Z,9.40
2019-06-26T18:29:15.631Z,10.88
2019-06-26T18:31:44.927Z,11.00
2019-06-26T18:34:14.208Z,9.40
2019-06-26T18:36:43.520Z,11.15
2019-06-26T18:39:12.812Z,8.80
2019-06-26T18:41:42.086Z,8.20
2019-06-26T18:44:11.413Z,12.78
2019-06-26T18:46:40.705Z,9.58
2019-06-26T18:49:10.051Z,9.85
2019-06-26T18:51:39.314Z,10.58
2019-06-26T18:54:08.626Z,10.90
2019-06-26T18:56:39.057Z,13.25
2019-06-26T18:59:08.471Z,9.73
2019-06-26T19:01:37.749Z,8.43
2019-06-26T19:04:07.032Z,9.60
2019-06-26T19:06:36.449Z,9.83
2019-06-26T19:09:07.327Z,9.23
2019-06-26T19:11:36.765Z,10.35
2019-06-26T19:14:06.103Z,9.88
2019-06-26T19:16:36.417Z,8.25
2019-06-26T19:19:06.015Z,9.00
2019-06-26T19:21:37.094Z,8.48
2019-06-26T19:24:10.478Z,8.70
2019-06-26T19:26:37.658Z,8.20
2019-06-26T19:29:06.988Z,8.93
2019-06-26T19:31:36.256Z,7.85
2019-06-26T19:34:05.545Z,7.78
2019-06-26T19:36:48.987Z,6.67
2019-06-26T19:39:07.157Z,7.92
2019-06-26T19:41:36.573Z,10.08
2019-06-26T19:44:08.865Z,7.72
2019-06-26T19:46:36.878Z,6.62
2019-06-26T19:49:06.279Z,7.58
2019-06-26T19:51:35.553Z,7.22
2019-06-26T19:54:04.874Z,8.38
2019-06-26T19:56:34.344Z,6.78
2019-06-26T19:59:03.588Z,8.65
2019-06-26T20:01:32.885Z,7.28
2019-06-26T20:04:02.168Z,7.72
2019-06-26T20:06:31.428Z,5.28
2019-06-26T20:09:00.714Z,5.67
2019-06-26T20:11:30.019Z,5.75
2019-06-26T20:13:59.315Z,6.05
2019-06-26T20:16:28.642Z,5.05
2019-06-26T20:18:57.924Z,7.20
2019-06-26T20:21:27.240Z,6.40
2019-06-26T20:23:58.226Z,9.63
2019-06-26T20:26:27.576Z,8.93
2019-06-26T20:28:56.885Z,8.98
2019-06-26T20:31:26.278Z,6.17
2019-06-26T20:33:55.612Z,8.08
2019-06-26T20:36:24.940Z,6.15
2019-06-26T20:38:54.322Z,6.12
2019-06-26T20:41:23.612Z,4.08
2019-06-26T20:43:52.889Z,7.55
2019-06-26T20:46:22.195Z,8.50
2019-06-26T20:48:51.465Z,6.83
2019-06-26T20:51:21.128Z,6.92
2019-06-26T20:53:51.335Z,7.33
2019-06-26T20:56:20.618Z,8.03
2019-06-26T20:58:49.926Z,11.20
2019-06-26T21:01:20.237Z,8.78
2019-06-26T21:07:21.157Z,7.42
2019-06-26T21:09:50.530Z,13.05
2019-06-26T21:12:24.174Z,7.58
2019-06-26T21:14:55.313Z,8.58
2019-06-26T21:17:25.757Z,5.15
2019-06-26T21:19:56.701Z,10.45
2019-06-26T21:22:25.981Z,10.60
2019-06-26T21:24:55.853Z,11.88
2019-06-26T21:28:14.771Z,7.37
2019-06-26T21:30:44.674Z,5.55
2019-06-26T21:33:14.078Z,9.18
2019-06-26T21:36:12.418Z,8.25
2019-06-26T21:38:42.340Z,10.23
2019-06-26T21:41:14.456Z,7.83
2019-06-26T21:43:43.852Z,6.78
2019-06-26T21:46:13.140Z,7.47
2019-06-26T21:52:11.957Z,12.07
2019-06-26T21:54:41.234Z,8.68
2019-06-26T21:57:10.524Z,10.55
2019-06-26T21:59:39.788Z,7.65
2019-06-26T22:03:12.417Z,10.90
2019-06-26T22:05:41.665Z,10.13
2019-06-26T22:15:23.795Z,9.03
2019-06-26T22:17:53.063Z,7.78
2019-06-26T22:20:23.358Z,8.35
2019-06-26T22:22:53.270Z,7.78
2019-06-26T22:25:22.643Z,8.50
2019-06-26T22:27:52.032Z,8.95
2019-06-26T22:30:21.485Z,10.88
2019-06-26T22:32:50.861Z,8.60
2019-06-26T22:35:21.338Z,7.47
2019-06-26T22:37:50.594Z,8.70
2019-06-26T22:40:19.846Z,7.83
2019-06-26T22:42:49.163Z,13.38
2019-06-26T22:45:18.495Z,9.20
2019-06-26T22:47:47.756Z,8.45
2019-06-26T22:50:17.031Z,9.33
2019-06-26T22:52:46.290Z,7.75
2019-06-26T22:55:15.697Z,10.28
2019-06-26T22:57:44.963Z,9.65
2019-06-26T23:00:15.804Z,10.03
2019-06-26T23:02:45.080Z,9.78
2019-06-26T23:05:14.337Z,9.28
2019-06-26T23:07:43.554Z,10.53
2019-06-26T23:10:13.020Z,9.40
2019-06-26T23:12:42.264Z,9.18
2019-06-26T23:15:13.552Z,11.38
2019-06-26T23:17:42.796Z,10.80
2019-06-26T23:20:12.480Z,8.68
2019-06-26T23:22:41.721Z,10.45
2019-06-26T23:25:11.275Z,9.10
2019-06-26T23:27:40.516Z,11.90
2019-06-26T23:30:16.876Z,12.05
2019-06-26T23:32:46.166Z,10.08
2019-06-26T23:35:15.446Z,10.28
2019-06-26T23:37:44.713Z,9.68
2019-06-26T23:40:14.087Z,10.82
2019-06-26T23:42:43.353Z,9.75
2019-06-26T23:45:12.934Z,12.23
2019-06-26T23:47:42.191Z,10.38
2019-06-26T23:50:11.766Z,11.12
2019-06-26T23:52:41.009Z,8.50
2019-06-26T23:55:10.308Z,9.85
2019-06-26T23:57:57.699Z,12.95
